Time;durP1;ratioP1;P1;durP2;ratioP2;P2;SDS_P1;SDS_P2;PMS_P1;PMS_P2;Temp;Humidity;BMP_temperature;BMP_pressure;BME280_temperature;BME280_humidity;BME280_pressure;Samples;Min_cycle;Max_cycle;Signal;HPM_P1;HPM_P2
2023/05/31 00:02:45;;;;;;;10.93;5.30;;;9.00;99.90;;;;;;5033728;28;20048;-92
2023/05/31 00:05:17;;;;;;;9.63;5.22;;;9.30;99.90;;;;;;5018726;28;20069;-91
2023/05/31 00:07:48;;;;;;;10.68;5.70;;;9.20;99.90;;;;;;5026694;28;20075;-91
2023/05/31 00:10:22;;;;;;;8.10;5.05;;;9.20;99.90;;;;;;5015573;28;20072;-92
2023/05/31 00:13:14;;;;;;;14.50;5.63;;;9.10;99.90;;;;;;5047334;28;20127;-92
2023/05/31 00:15:43;;;;;;;10.85;5.50;;;9.60;99.90;;;;;;5024237;28;20134;-92
2023/05/31 00:18:12;;;;;;;10.07;6.00;;;8.60;99.90;;;;;;5020000;28;20436;-92
2023/05/31 00:21:00;;;;;;;14.48;5.63;;;9.00;99.90;;;;;;5018757;28;20045;-92
2023/05/31 00:23:35;;;;;;;9.77;6.00;;;9.10;99.90;;;;;;5016454;28;20323;-92
2023/05/31 00:26:36;;;;;;;13.35;6.38;;;9.00;99.90;;;;;;5012972;28;20523;-92
2023/05/31 00:29:19;;;;;;;15.50;6.28;;;9.20;99.90;;;;;;4996834;28;20054;-92
2023/05/31 00:32:00;;;;;;;11.50;5.85;;;9.00;99.90;;;;;;5024196;28;20052;-91
2023/05/31 00:34:43;;;;;;;10.27;5.53;;;9.00;99.90;;;;;;5031493;28;20068;-91
2023/05/31 00:37:37;;;;;;;11.20;5.65;;;9.00;99.90;;;;;;5032210;28;20044;-94
2023/05/31 00:40:11;;;;;;;11.25;6.03;;;9.10;99.90;;;;;;5023667;28;20403;-94
2023/05/31 00:42:43;;;;;;;9.25;5.90;;;8.90;99.90;;;;;;5031705;28;20063;-94
2023/05/31 00:45:35;;;;;;;10.68;5.82;;;8.80;99.90;;;;;;5047197;28;20045;-94
2023/05/31 00:48:32;;;;;;;11.80;5.60;;;8.80;99.90;;;;;;5031199;28;20052;-94
2023/05/31 00:51:08;;;;;;;11.52;5.93;;;9.00;99.90;;;;;;5028579;28;20492;-94
2023/05/31 00:53:51;;;;;;;13.18;6.97;;;8.80;99.90;;;;;;5031346;28;20072;-94
2023/05/31 00:56:44;;;;;;;13.55;6.57;;;8.70;99.90;;;;;;5022427;28;20045;-94
2023/05/31 00:59:40;;;;;;;14.45;6.63;;;8.60;99.90;;;;;;5028303;28;20139;-94
2023/05/31 01:02:26;;;;;;;12.48;6.05;;;8.80;99.90;;;;;;5032625;28;20036;-94
2023/05/31 01:05:02;;;;;;;13.38;6.32;;;8.80;99.90;;;;;;5034210;28;20057;-95
2023/05/31 01:07:43;;;;;;;10.50;6.35;;;8.70;99.90;;;;;;5051516;28;20056;-94
2023/05/31 01:10:31;;;;;;;;;;;;;;;;;;;;;
2023/05/31 01:14:01;;;;;;;13.25;6.45;;;8.70;99.90;;;;;;5039685;28;20493;-91
2023/05/31 01:16:47;;;;;;;12.90;6.63;;;8.60;99.90;;;;;;5048442;28;20078;-92
2023/05/31 01:19:50;;;;;;;11.85;5.60;;;8.60;99.90;;;;;;5029907;28;20484;-92
2023/05/31 01:22:41;;;;;;;16.00;7.95;;;8.60;99.90;;;;;;5043073;28;20044;-91
2023/05/31 01:25:53;;;;;;;9.75;5.65;;;8.70;99.90;;;;;;5023443;28;20095;-92
2023/05/31 01:28:39;;;;;;;8.48;4.80;;;8.60;99.90;;;;;;5033852;28;20045;-91
2023/05/31 01:31:22;;;;;;;10.15;5.90;;;8.60;99.90;;;;;;5038693;28;20126;-92
2023/05/31 01:34:04;;;;;;;;;;;;;;;;;;;;;
2023/05/31 01:36:54;;;;;;;10.30;5.90;;;8.50;99.90;;;;;;5071671;28;20055;-93
2023/05/31 01:39:25;;;;;;;11.95;6.32;;;8.40;99.90;;;;;;5053481;28;20123;-92
2023/05/31 01:42:27;;;;;;;19.40;8.00;;;8.40;99.90;;;;;;5055108;28;20060;-93
2023/05/31 01:44:59;;;;;;;17.83;7.55;;;8.50;99.90;;;;;;5028835;28;20056;-91
2023/05/31 01:47:56;;;;;;;19.65;7.95;;;8.50;99.90;;;;;;5037021;28;20044;-92
2023/05/31 01:50:23;;;;;;;19.52;8.55;;;8.50;99.90;;;;;;5054028;28;20080;-92
2023/05/31 01:52:53;;;;;;;22.70;9.02;;;8.60;99.90;;;;;;5037624;28;20037;-93
2023/05/31 01:56:09;;;;;;;18.50;8.80;;;8.60;99.90;;;;;;5037438;28;20063;-93
2023/05/31 01:58:42;;;;;;;17.60;8.38;;;8.90;99.90;;;;;;5050068;28;20068;-93
2023/05/31 02:01:45;;;;;;;13.35;6.90;;;8.60;99.90;;;;;;5057252;28;20063;-93
2023/05/31 02:04:23;;;;;;;14.30;8.75;;;8.60;99.90;;;;;;5053921;28;20093;-93
2023/05/31 02:07:00;;;;;;;18.73;7.80;;;8.60;99.90;;;;;;5040450;28;20582;-93
2023/05/31 02:09:43;;;;;;;12.95;6.50;;;8.60;99.90;;;;;;5053211;28;20426;-93
2023/05/31 02:12:11;;;;;;;12.55;7.00;;;8.60;99.90;;;;;;5042880;28;20045;-93
2023/05/31 02:14:53;;;;;;;14.48;7.57;;;8.10;99.90;;;;;;5035870;28;20125;-93
2023/05/31 02:17:34;;;;;;;14.15;7.38;;;8.50;99.90;;;;;;5054588;28;20179;-92
2023/05/31 02:20:16;;;;;;;13.80;6.85;;;8.70;99.90;;;;;;5041774;28;20048;-93
2023/05/31 02:23:19;;;;;;;12.77;6.80;;;8.50;99.90;;;;;;5036945;28;20430;-92
2023/05/31 02:25:57;;;;;;;15.23;7.75;;;8.40;99.90;;;;;;5037229;28;20036;-93
2023/05/31 02:28:25;;;;;;;15.13;6.95;;;8.60;99.90;;;;;;5025023;28;20028;-92
2023/05/31 02:31:01;;;;;;;15.82;7.35;;;8.30;99.90;;;;;;5035988;28;20493;-93
2023/05/31 02:33:37;;;;;;;;;;;;;;;;;;;;;
2023/05/31 02:36:12;;;;;;;11.90;5.97;;;8.30;99.90;;;;;;5031557;28;20485;-94
2023/05/31 02:38:58;;;;;;;10.45;5.07;;;7.80;99.90;;;;;;5015657;28;20045;-94
2023/05/31 02:41:50;;;;;;;12.13;5.72;;;8.30;99.90;;;;;;5022396;28;20056;-93
2023/05/31 02:44:41;;;;;;;14.82;6.05;;;8.10;99.90;;;;;;5042738;28;20048;-93
2023/05/31 02:47:23;;;;;;;12.50;7.00;;;8.10;99.90;;;;;;5019478;28;20279;-93
2023/05/31 02:50:00;;;;;;;11.10;6.38;;;7.90;99.90;;;;;;5024207;28;20078;-92
2023/05/31 02:52:28;;;;;;;24.40;8.93;;;7.90;99.90;;;;;;5016605;28;20114;-93
2023/05/31 02:55:28;;;;;;;10.10;6.25;;;8.00;99.90;;;;;;5024950;28;20049;-93
2023/05/31 02:58:02;;;;;;;10.10;6.65;;;8.00;99.90;;;;;;5006721;28;20462;-92
2023/05/31 03:00:30;;;;;;;13.20;7.38;;;8.00;99.90;;;;;;5017045;28;20053;-92
2023/05/31 03:03:08;;;;;;;14.57;6.70;;;8.00;99.90;;;;;;5012141;28;20489;-93
2023/05/31 03:05:44;;;;;;;12.90;5.85;;;8.80;99.90;;;;;;5007739;28;20539;-93
2023/05/31 03:08:36;;;;;;;8.90;4.53;;;8.20;99.90;;;;;;5019628;28;20044;-93
2023/05/31 03:11:35;;;;;;;;;;;;;;;;;;;;;
2023/05/31 03:14:09;;;;;;;18.02;6.68;;;7.70;99.90;;;;;;5030219;28;20098;-93
2023/05/31 03:17:30;;;;;;;15.40;7.05;;;7.70;99.90;;;;;;5013303;28;20067;-93
2023/05/31 03:20:14;;;;;;;13.95;6.78;;;7.90;99.90;;;;;;5031182;28;20049;-93
2023/05/31 03:22:55;;;;;;;15.18;6.53;;;7.80;99.90;;;;;;5034580;28;20050;-93
2023/05/31 03:25:45;;;;;;;9.07;5.53;;;7.60;99.90;;;;;;5024733;28;20045;-93
2023/05/31 03:28:14;;;;;;;8.00;5.13;;;7.80;99.90;;;;;;5016127;28;20041;-93
2023/05/31 03:31:23;;;;;;;11.48;6.32;;;7.80;99.90;;;;;;5017259;28;20102;-93
2023/05/31 03:34:09;;;;;;;16.85;6.70;;;7.80;99.90;;;;;;5070104;28;20052;-93
2023/05/31 03:37:06;;;;;;;12.40;7.00;;;7.80;99.90;;;;;;5038047;28;20131;-92
2023/05/31 03:40:20;;;;;;;11.63;6.55;;;7.80;99.90;;;;;;5041354;28;20052;-93
2023/05/31 03:43:00;;;;;;;19.10;8.05;;;7.80;99.90;;;;;;5035857;28;20573;-93
2023/05/31 03:45:49;;;;;;;18.23;9.98;;;7.90;99.90;;;;;;5034981;28;20041;-93
2023/05/31 03:48:17;;;;;;;20.98;9.57;;;8.00;99.90;;;;;;5031801;28;20052;-93
2023/05/31 03:50:57;;;;;;;18.15;9.00;;;8.20;99.90;;;;;;5036003;28;20107;-93
2023/05/31 03:53:43;;;;;;;20.15;8.63;;;8.10;99.90;;;;;;5027805;28;20064;-92
2023/05/31 03:56:12;;;;;;;16.98;7.40;;;8.20;99.90;;;;;;5042384;28;20186;-93
2023/05/31 03:59:10;;;;;;;14.50;6.95;;;8.80;99.90;;;;;;5036407;28;20117;-93
2023/05/31 04:01:50;;;;;;;16.92;8.10;;;8.30;99.90;;;;;;5051587;28;20131;-94
2023/05/31 04:04:38;;;;;;;20.67;9.20;;;8.20;99.90;;;;;;5036604;28;20058;-93
2023/05/31 04:07:14;;;;;;;19.45;8.18;;;8.40;99.90;;;;;;5034309;28;20123;-93
2023/05/31 04:09:51;;;;;;;14.45;7.97;;;8.40;99.90;;;;;;5036523;28;20495;-93
2023/05/31 04:12:43;;;;;;;27.42;11.32;;;8.70;99.90;;;;;;5030658;28;20061;-94
2023/05/31 04:15:22;;;;;;;21.48;10.02;;;8.60;99.90;;;;;;5032321;28;20048;-94
2023/05/31 04:18:03;;;;;;;20.83;10.52;;;8.70;99.90;;;;;;5035841;28;20044;-93
2023/05/31 04:20:51;;;;;;;29.83;11.77;;;8.70;99.90;;;;;;5024828;28;20082;-94
2023/05/31 04:23:31;;;;;;;29.80;12.13;;;9.60;99.90;;;;;;5034630;28;20404;-94
2023/05/31 04:26:17;;;;;;;31.27;11.88;;;8.90;99.90;;;;;;5035076;28;20152;-94
2023/05/31 04:29:08;;;;;;;24.35;10.73;;;9.00;99.90;;;;;;5035049;28;20129;-94
2023/05/31 04:32:15;;;;;;;30.33;11.23;;;9.10;99.90;;;;;;5031619;28;20123;-93
2023/05/31 04:35:13;;;;;;;;;;;;;;;;;;;;;
2023/05/31 04:38:08;;;;;;;30.25;10.98;;;9.30;99.90;;;;;;5021462;28;20471;-94
2023/05/31 04:41:03;;;;;;;26.00;11.15;;;9.30;99.90;;;;;;5014462;28;20045;-94
2023/05/31 04:43:47;;;;;;;22.63;10.85;;;9.40;99.90;;;;;;4971532;28;20081;-94
2023/05/31 04:46:17;;;;;;;23.70;10.63;;;9.60;99.90;;;;;;5017449;28;20057;-95
2023/05/31 04:49:11;;;;;;;29.67;10.77;;;9.60;99.90;;;;;;5038699;28;20044;-94
2023/05/31 04:51:46;;;;;;;29.45;11.13;;;9.70;99.90;;;;;;5031876;28;20142;-93
2023/05/31 04:54:35;;;;;;;23.65;11.25;;;9.70;99.90;;;;;;5022044;28;20414;-94
2023/05/31 04:57:21;;;;;;;22.58;10.50;;;9.90;99.90;;;;;;5018975;28;20051;-94
2023/05/31 05:00:24;;;;;;;25.10;11.23;;;10.00;99.90;;;;;;5023788;28;20136;-93
2023/05/31 05:09:51;;;;;;;24.40;10.18;;;10.40;99.90;;;;;;4965399;28;20056;-94
2023/05/31 05:12:26;;;;;;;24.55;9.45;;;10.60;99.90;;;;;;4965853;28;20050;-93
2023/05/31 05:15:10;;;;;;;27.45;9.07;;;10.70;99.90;;;;;;5027658;28;20041;-94
2023/05/31 05:17:54;;;;;;;27.45;8.85;;;10.80;99.90;;;;;;5023702;28;20136;-95
2023/05/31 05:20:43;;;;;;;20.05;8.45;;;10.90;99.90;;;;;;5036401;28;20060;-94
2023/05/31 05:23:56;;;;;;;28.45;9.20;;;11.10;99.90;;;;;;5022018;28;20053;-94
2023/05/31 05:26:33;;;;;;;23.00;9.02;;;11.20;99.90;;;;;;4999764;28;20489;-94
2023/05/31 05:29:19;;;;;;;22.27;8.65;;;11.40;99.90;;;;;;5032181;28;20052;-94
2023/05/31 05:31:51;;;;;;;27.05;9.18;;;11.50;99.90;;;;;;5025552;28;20056;-94
2023/05/31 05:37:52;;;;;;;24.77;8.48;;;11.70;99.90;;;;;;5000452;28;20498;-95
2023/05/31 05:41:00;;;;;;;22.65;8.30;;;11.80;99.90;;;;;;5068183;28;20064;-95
2023/05/31 05:44:00;;;;;;;23.52;8.35;;;11.90;99.90;;;;;;5034199;28;20068;-94
2023/05/31 05:46:53;;;;;;;26.02;9.15;;;12.10;99.90;;;;;;5035049;28;20106;-95
2023/05/31 05:49:28;;;;;;;21.45;8.57;;;12.30;99.90;;;;;;5039013;28;20090;-94
2023/05/31 05:52:02;;;;;;;26.85;9.15;;;12.40;99.90;;;;;;5051274;28;20070;-95
2023/05/31 05:55:20;;;;;;;27.48;8.02;;;12.50;99.90;;;;;;5029313;28;20053;-95
2023/05/31 05:58:18;;;;;;;23.20;8.13;;;12.50;99.90;;;;;;5065570;28;20049;-94
2023/05/31 06:02:09;;;;;;;;;;;;;;;;;;;;;
2023/05/31 06:04:33;;;;;;;25.33;7.72;;;12.80;99.90;;;;;;5037987;28;20435;-96
2023/05/31 06:07:30;;;;;;;21.42;7.95;;;13.10;99.90;;;;;;5039571;28;20044;-95
2023/05/31 06:10:27;;;;;;;;;;;;;;;;;;;;;
2023/05/31 06:18:45;;;;;;;19.48;7.50;;;13.50;99.90;;;;;;5024564;28;20687;-96
2023/05/31 06:24:04;;;;;;;20.95;7.13;;;14.30;99.90;;;;;;5016991;28;20076;-94
2023/05/31 06:26:41;;;;;;;21.50;6.53;;;13.60;99.90;;;;;;5002564;28;20060;-94
2023/05/31 06:29:41;;;;;;;19.65;7.35;;;13.90;99.90;;;;;;5035993;28;20059;-94
2023/05/31 06:32:19;;;;;;;20.80;6.32;;;13.90;99.90;;;;;;5033534;28;20057;-95
2023/05/31 06:35:16;;;;;;;19.55;6.35;;;14.00;99.90;;;;;;5018269;28;20447;-95
2023/05/31 06:38:14;;;;;;;22.63;6.75;;;14.10;99.90;;;;;;5036901;28;20091;-94
2023/05/31 06:41:11;;;;;;;19.35;6.78;;;14.30;99.90;;;;;;5034422;28;20136;-94
2023/05/31 06:43:59;;;;;;;17.77;5.80;;;14.30;99.90;;;;;;5036641;28;20084;-94
2023/05/31 06:46:25;;;;;;;23.05;6.25;;;14.50;99.90;;;;;;5003622;28;20569;-95
2023/05/31 06:48:51;;;;;;;21.48;6.18;;;14.60;99.90;;;;;;5046333;28;20136;-94
2023/05/31 06:51:19;;;;;;;19.92;6.47;;;14.70;99.90;;;;;;5018312;28;20044;-95
2023/05/31 06:53:45;;;;;;;13.70;5.22;;;14.80;99.90;;;;;;5016065;28;20516;-95
2023/05/31 06:56:13;;;;;;;24.08;5.90;;;14.80;99.90;;;;;;5007285;28;20069;-96
2023/05/31 06:58:43;;;;;;;10.05;4.57;;;14.80;99.90;;;;;;5013755;28;20045;-94
2023/05/31 07:01:08;;;;;;;15.10;4.72;;;15.00;99.90;;;;;;5009269;28;20139;-95
2023/05/31 07:03:34;;;;;;;10.38;4.10;;;15.10;99.90;;;;;;5017567;28;20204;-95
2023/05/31 07:06:00;;;;;;;14.13;4.25;;;15.20;99.90;;;;;;5018371;28;20057;-94
2023/05/31 07:08:28;;;;;;;10.30;3.55;;;15.10;99.90;;;;;;5017570;28;20037;-95
2023/05/31 07:10:54;;;;;;;8.32;3.30;;;15.40;99.90;;;;;;5017692;28;20489;-95
2023/05/31 07:13:20;;;;;;;12.25;2.95;;;15.50;99.90;;;;;;5007792;28;20072;-95
2023/05/31 07:15:45;;;;;;;11.32;2.90;;;15.60;99.90;;;;;;5016642;28;20586;-96
2023/05/31 07:18:11;;;;;;;13.50;2.72;;;15.60;99.90;;;;;;5016515;28;20064;-95
2023/05/31 07:20:37;;;;;;;8.35;2.28;;;15.70;99.90;;;;;;5016521;28;20067;-94
2023/05/31 07:23:02;;;;;;;8.20;2.40;;;15.60;99.90;;;;;;5016201;28;20132;-94
2023/05/31 07:25:28;;;;;;;10.70;2.38;;;15.90;99.90;;;;;;5016081;28;20123;-94
2023/05/31 07:27:54;;;;;;;10.07;2.53;;;15.90;99.90;;;;;;5014741;28;20490;-94
2023/05/31 07:30:20;;;;;;;10.18;2.08;;;16.00;99.90;;;;;;5006687;28;20049;-95
2023/05/31 07:32:46;;;;;;;9.95;2.20;;;16.10;99.90;;;;;;5020264;28;20366;-95
2023/05/31 07:35:12;;;;;;;7.38;1.63;;;16.20;99.90;;;;;;5044492;28;20060;-96
2023/05/31 07:37:37;;;;;;;12.00;2.10;;;16.30;99.90;;;;;;5029728;28;20068;-96
2023/05/31 07:40:06;;;;;;;8.40;1.75;;;16.40;99.90;;;;;;5032933;28;20116;-95
2023/05/31 07:42:32;;;;;;;7.80;1.63;;;16.40;99.90;;;;;;5024301;28;20040;-95
2023/05/31 07:44:59;;;;;;;14.13;2.08;;;16.50;99.90;;;;;;5020759;28;20070;-95
2023/05/31 07:47:24;;;;;;;6.75;1.65;;;16.50;99.90;;;;;;5022058;28;20064;-95
2023/05/31 07:49:51;;;;;;;8.65;1.80;;;16.50;99.90;;;;;;5027555;28;20492;-95
2023/05/31 07:52:24;;;;;;;11.18;1.75;;;16.60;99.90;;;;;;5028743;28;20036;-95
2023/05/31 07:54:50;;;;;;;8.32;2.00;;;16.60;99.90;;;;;;5027544;28;20041;-95
2023/05/31 07:57:16;;;;;;;8.13;1.88;;;16.80;99.90;;;;;;5027827;28;20065;-94
2023/05/31 07:59:42;;;;;;;9.73;1.85;;;16.80;99.90;;;;;;5024324;28;20032;-94
2023/05/31 08:02:08;;;;;;;10.13;1.67;;;16.90;99.90;;;;;;5029764;28;20074;-95
2023/05/31 08:04:33;;;;;;;12.27;2.15;;;16.90;99.90;;;;;;5029087;28;20041;-96
2023/05/31 08:07:00;;;;;;;10.43;1.98;;;17.10;99.90;;;;;;5039460;28;20041;-96
2023/05/31 08:09:26;;;;;;;8.90;1.70;;;17.10;99.90;;;;;;5026277;28;20036;-96
2023/05/31 08:11:52;;;;;;;10.00;2.25;;;17.10;99.90;;;;;;5020478;28;20587;-95
2023/05/31 08:14:18;;;;;;;18.65;2.50;;;17.20;99.90;;;;;;5026327;28;20044;-96
2023/05/31 08:16:44;;;;;;;10.23;1.98;;;17.30;99.90;;;;;;5033552;28;20381;-96
2023/05/31 08:19:11;;;;;;;10.90;2.17;;;17.40;99.90;;;;;;5025710;28;20155;-96
2023/05/31 08:21:37;;;;;;;11.25;2.33;;;17.50;99.90;;;;;;5039358;28;20116;-95
2023/05/31 08:24:05;;;;;;;7.90;2.20;;;17.60;99.90;;;;;;5035502;28;20048;-96
2023/05/31 08:26:32;;;;;;;11.00;2.30;;;17.70;99.90;;;;;;5031145;28;20053;-94
2023/05/31 08:28:59;;;;;;;10.07;2.25;;;17.70;99.90;;;;;;5034232;28;20043;-94
2023/05/31 08:31:26;;;;;;;12.75;2.67;;;17.90;99.90;;;;;;5027405;28;20124;-95
2023/05/31 08:33:56;;;;;;;11.60;2.40;;;17.90;99.90;;;;;;5029104;28;20144;-94
2023/05/31 08:36:22;;;;;;;10.18;2.70;;;18.00;99.90;;;;;;5034136;28;20049;-94
2023/05/31 08:38:48;;;;;;;12.65;2.70;;;18.00;99.90;;;;;;5036051;28;20497;-95
2023/05/31 08:41:14;;;;;;;10.48;2.40;;;18.00;99.90;;;;;;5031891;28;20055;-94
2023/05/31 08:43:40;;;;;;;10.07;2.55;;;18.00;99.90;;;;;;5036331;28;20063;-95
2023/05/31 08:46:10;;;;;;;10.43;2.70;;;18.10;99.90;;;;;;5033544;28;20037;-95
2023/05/31 08:48:48;;;;;;;13.43;2.70;;;18.10;99.90;;;;;;5039328;28;20037;-96
2023/05/31 08:51:15;;;;;;;14.98;2.75;;;17.90;99.90;;;;;;5033909;28;20055;-95
2023/05/31 08:53:42;;;;;;;11.10;2.50;;;17.70;99.90;;;;;;5034839;28;20040;-95
2023/05/31 08:56:09;;;;;;;14.13;2.58;;;17.60;99.90;;;;;;5032778;28;20052;-94
2023/05/31 08:58:41;;;;;;;14.75;3.28;;;17.50;99.90;;;;;;5036599;28;20044;-92
2023/05/31 09:01:07;;;;;;;16.02;3.20;;;17.70;99.90;;;;;;5034973;28;20052;-94
2023/05/31 09:03:33;;;;;;;10.68;2.97;;;17.80;99.90;;;;;;5033739;28;20037;-94
2023/05/31 09:05:59;;;;;;;10.55;2.75;;;17.80;99.90;;;;;;5034828;28;20076;-95
2023/05/31 09:08:25;;;;;;;17.88;3.30;;;18.00;99.90;;;;;;5034215;28;20040;-96
2023/05/31 09:10:51;;;;;;;13.48;3.10;;;18.00;99.90;;;;;;5027492;28;20040;-96
2023/05/31 09:13:17;;;;;;;15.88;2.88;;;18.00;99.90;;;;;;5027203;28;20497;-96
2023/05/31 09:15:45;;;;;;;12.07;3.28;;;18.10;99.90;;;;;;5034283;28;20128;-96
2023/05/31 09:18:14;;;;;;;16.75;2.80;;;18.10;99.90;;;;;;5037073;28;20465;-96
2023/05/31 09:20:40;;;;;;;16.02;3.17;;;18.10;99.90;;;;;;5036143;28;20462;-96
2023/05/31 09:23:08;;;;;;;13.52;3.53;;;18.30;99.90;;;;;;5030189;28;20120;-96
2023/05/31 09:25:52;;;;;;;12.82;3.80;;;18.40;99.90;;;;;;5046820;28;20040;-96
2023/05/31 09:28:19;;;;;;;20.45;3.85;;;18.40;99.90;;;;;;5039069;28;20140;-95
2023/05/31 09:30:45;;;;;;;14.13;3.90;;;18.40;99.90;;;;;;5038140;28;20066;-96
2023/05/31 09:33:13;;;;;;;14.18;3.78;;;18.20;99.90;;;;;;5051999;28;20056;-96
2023/05/31 09:35:56;;;;;;;20.98;4.85;;;18.20;99.90;;;;;;5023366;28;20085;-96
2023/05/31 09:38:32;;;;;;;15.57;4.38;;;17.80;99.90;;;;;;5022841;28;20123;-95
2023/05/31 09:41:12;;;;;;;14.48;3.83;;;17.90;99.90;;;;;;5012477;28;20049;-96
2023/05/31 09:43:42;;;;;;;13.82;4.13;;;17.90;99.90;;;;;;5024920;28;20040;-96
2023/05/31 09:46:15;;;;;;;13.90;4.20;;;18.00;99.90;;;;;;5018972;28;20501;-96
2023/05/31 09:48:41;;;;;;;15.18;3.95;;;17.90;99.90;;;;;;5018314;28;20045;-96
2023/05/31 09:51:08;;;;;;;10.70;3.45;;;17.90;99.90;;;;;;5018568;28;20083;-96
2023/05/31 09:53:40;;;;;;;13.63;4.30;;;17.90;99.90;;;;;;5018040;28;20041;-96
2023/05/31 09:56:11;;;;;;;10.07;3.70;;;17.90;99.90;;;;;;5008635;28;20132;-96
2023/05/31 09:58:37;;;;;;;10.68;3.72;;;17.80;99.90;;;;;;5017662;28;20049;-95
2023/05/31 10:01:04;;;;;;;10.93;4.43;;;17.70;99.90;;;;;;5018523;28;20041;-96
2023/05/31 10:03:31;;;;;;;12.40;3.80;;;17.70;99.90;;;;;;5018728;28;20045;-94
2023/05/31 10:05:57;;;;;;;11.45;3.67;;;17.80;99.90;;;;;;5027008;28;20048;-93
2023/05/31 10:08:23;;;;;;;10.70;3.65;;;17.70;99.90;;;;;;5017956;28;20044;-92
2023/05/31 10:10:49;;;;;;;12.32;4.05;;;17.70;99.90;;;;;;5018894;28;20401;-93
2023/05/31 10:13:17;;;;;;;23.15;4.65;;;17.80;99.90;;;;;;5018180;28;20463;-94
2023/05/31 10:15:46;;;;;;;13.40;4.15;;;17.80;99.90;;;;;;5017565;28;20498;-93
2023/05/31 10:18:16;;;;;;;12.38;4.07;;;17.70;99.90;;;;;;5031445;28;20070;-93
2023/05/31 10:20:52;;;;;;;11.70;4.13;;;17.60;99.90;;;;;;5033297;28;20041;-92
2023/05/31 10:23:21;;;;;;;15.38;4.65;;;17.70;99.90;;;;;;5015832;28;20092;-92
2023/05/31 10:26:09;;;;;;;12.63;3.75;;;17.80;99.90;;;;;;5011118;28;20048;-92
2023/05/31 10:28:40;;;;;;;14.25;4.35;;;17.90;99.90;;;;;;5014876;28;20464;-92
2023/05/31 10:31:08;;;;;;;9.98;3.90;;;17.90;99.90;;;;;;5019701;28;20036;-91
2023/05/31 10:33:34;;;;;;;10.40;4.22;;;18.10;99.90;;;;;;5041401;28;20046;-91
2023/05/31 10:36:00;;;;;;;15.13;4.65;;;18.10;99.90;;;;;;5038651;28;20036;-91
2023/05/31 10:38:34;;;;;;;14.18;4.60;;;18.20;99.90;;;;;;5031503;28;20043;-91
2023/05/31 10:41:09;;;;;;;11.63;4.70;;;18.10;99.90;;;;;;5035623;28;20087;-92
2023/05/31 10:43:44;;;;;;;12.20;4.05;;;18.10;99.90;;;;;;5036319;28;20052;-92
2023/05/31 10:46:20;;;;;;;14.02;4.15;;;18.30;99.90;;;;;;5025620;28;20054;-91
2023/05/31 10:48:55;;;;;;;12.48;4.28;;;18.40;99.90;;;;;;5035914;28;20128;-90
2023/05/31 10:51:39;;;;;;;9.00;3.78;;;18.50;99.90;;;;;;5035718;28;20036;-93
2023/05/31 10:54:05;;;;;;;8.40;3.30;;;18.60;99.90;;;;;;5031401;28;20041;-91
2023/05/31 10:56:32;;;;;;;8.27;3.50;;;18.70;99.90;;;;;;5036405;28;20063;-93
2023/05/31 10:58:57;;;;;;;12.45;3.60;;;18.70;99.90;;;;;;5037117;28;20051;-93
2023/05/31 11:01:28;;;;;;;11.32;3.55;;;18.70;99.90;;;;;;5035977;28;20443;-91
2023/05/31 11:03:57;;;;;;;10.90;3.67;;;18.70;99.90;;;;;;5031019;28;20036;-90
2023/05/31 11:06:27;;;;;;;25.40;4.32;;;18.70;99.90;;;;;;5033596;28;20041;-91
2023/05/31 11:08:58;;;;;;;13.48;3.50;;;18.80;99.90;;;;;;5029720;28;20048;-90
2023/05/31 11:11:44;;;;;;;11.77;3.45;;;18.80;99.90;;;;;;5035801;28;20048;-91
2023/05/31 11:14:25;;;;;;;8.10;2.95;;;18.70;99.90;;;;;;5030017;28;20043;-91
2023/05/31 11:16:53;;;;;;;13.48;3.13;;;18.80;99.90;;;;;;5061128;28;20097;-91
2023/05/31 11:19:27;;;;;;;10.77;3.00;;;18.80;99.90;;;;;;5065529;28;20044;-91
2023/05/31 11:21:55;;;;;;;16.58;3.80;;;18.90;99.90;;;;;;5024560;28;20046;-92
2023/05/31 11:24:42;;;;;;;15.98;3.45;;;18.90;99.90;;;;;;5022755;28;20048;-91
2023/05/31 11:27:12;;;;;;;11.63;2.55;;;18.90;99.90;;;;;;5026261;28;20537;-91
2023/05/31 11:29:44;;;;;;;27.80;2.92;;;19.00;99.90;;;;;;5034903;28;20107;-90
2023/05/31 11:32:11;;;;;;;10.18;2.63;;;19.00;99.90;;;;;;5035663;28;20044;-91
2023/05/31 11:34:53;;;;;;;10.38;2.33;;;19.00;99.90;;;;;;5028518;28;20044;-90
2023/05/31 11:37:21;;;;;;;15.60;2.75;;;19.20;99.90;;;;;;5040944;28;20041;-90
2023/05/31 11:39:47;;;;;;;13.30;3.03;;;19.20;99.90;;;;;;5030493;28;20048;-91
2023/05/31 11:42:14;;;;;;;13.43;3.22;;;19.20;99.90;;;;;;5022266;28;20044;-91
2023/05/31 11:44:43;;;;;;;11.10;3.03;;;19.20;99.90;;;;;;5027245;28;20438;-90
2023/05/31 11:47:16;;;;;;;8.18;2.45;;;19.20;99.90;;;;;;5025923;28;20041;-89
2023/05/31 11:49:42;;;;;;;10.35;2.78;;;19.20;99.90;;;;;;5028427;28;20133;-91
2023/05/31 11:52:08;;;;;;;10.02;2.67;;;19.30;99.90;;;;;;5023755;28;20120;-90
2023/05/31 11:54:35;;;;;;;11.40;2.33;;;19.30;99.90;;;;;;5025337;28;20041;-91
2023/05/31 11:57:04;;;;;;;8.93;2.45;;;19.30;99.90;;;;;;5027754;28;20068;-91
2023/05/31 11:59:32;;;;;;;13.40;2.97;;;19.30;99.90;;;;;;5030259;28;20497;-91
2023/05/31 12:01:59;;;;;;;8.85;2.65;;;19.30;99.90;;;;;;5026579;28;20553;-91
2023/05/31 12:04:31;;;;;;;12.30;2.75;;;19.30;99.90;;;;;;5029112;28;20048;-91
2023/05/31 12:06:57;;;;;;;12.60;2.88;;;19.20;99.90;;;;;;5037310;28;20052;-90
2023/05/31 12:09:25;;;;;;;16.00;3.20;;;19.20;99.90;;;;;;5008137;28;20076;-91
2023/05/31 12:11:52;;;;;;;14.05;3.20;;;19.30;99.90;;;;;;5041064;28;20048;-90
2023/05/31 12:14:17;;;;;;;11.02;2.80;;;19.30;99.90;;;;;;5022089;28;20037;-90
2023/05/31 12:16:46;;;;;;;11.05;2.70;;;19.40;99.90;;;;;;5021238;28;20118;-92
2023/05/31 12:19:12;;;;;;;12.63;2.38;;;19.30;99.90;;;;;;5024673;28;20069;-92
2023/05/31 12:21:37;;;;;;;10.88;2.90;;;19.30;99.90;;;;;;5020435;28;20052;-92
2023/05/31 12:24:11;;;;;;;10.57;2.60;;;19.10;99.90;;;;;;5002727;28;20113;-90
2023/05/31 12:26:37;;;;;;;13.20;3.00;;;19.10;99.90;;;;;;5021450;28;20041;-90
2023/05/31 12:29:03;;;;;;;9.23;2.88;;;19.10;99.90;;;;;;5030978;28;20346;-91
2023/05/31 12:31:32;;;;;;;7.18;2.75;;;19.20;99.90;;;;;;5017660;28;20045;-93
2023/05/31 12:34:04;;;;;;;14.07;3.35;;;19.20;99.90;;;;;;5020824;28;20061;-94
2023/05/31 12:36:38;;;;;;;12.13;3.42;;;19.20;99.90;;;;;;5036854;28;20535;-95
2023/05/31 12:39:11;;;;;;;11.27;3.25;;;19.20;99.90;;;;;;5029523;28;20079;-94
2023/05/31 12:41:40;;;;;;;9.02;3.13;;;19.20;99.90;;;;;;5031670;28;20048;-93
2023/05/31 12:44:07;;;;;;;12.63;3.72;;;19.30;99.90;;;;;;5017999;28;20043;-94
2023/05/31 12:46:38;;;;;;;12.60;4.00;;;19.20;99.90;;;;;;5031413;28;20186;-93
2023/05/31 12:49:21;;;;;;;14.55;4.50;;;19.20;99.90;;;;;;5030125;28;20048;-93
2023/05/31 12:51:57;;;;;;;15.50;5.40;;;19.20;99.90;;;;;;5015445;28;20090;-93
2023/05/31 12:54:25;;;;;;;9.85;4.53;;;19.20;99.90;;;;;;5010632;28;20037;-90
2023/05/31 12:56:51;;;;;;;12.32;3.88;;;19.20;99.90;;;;;;5020350;28;20045;-95
2023/05/31 12:59:16;;;;;;;13.30;3.53;;;19.10;99.90;;;;;;5027189;28;20421;-89
2023/05/31 13:01:43;;;;;;;9.93;3.03;;;19.00;99.90;;;;;;5026332;28;20110;-90
2023/05/31 13:04:11;;;;;;;11.75;3.20;;;18.90;99.90;;;;;;5028713;28;20041;-89
2023/05/31 13:06:39;;;;;;;15.27;3.00;;;19.00;99.90;;;;;;5025407;28;20056;-89
2023/05/31 13:09:05;;;;;;;11.88;2.95;;;19.10;99.90;;;;;;5016969;28;20044;-89
2023/05/31 13:11:34;;;;;;;10.77;3.28;;;19.10;99.90;;;;;;5044650;28;20046;-89
2023/05/31 13:14:03;;;;;;;12.30;3.50;;;19.00;99.90;;;;;;5021853;28;20099;-89
2023/05/31 13:16:29;;;;;;;7.32;3.15;;;19.00;99.90;;;;;;5035376;28;20080;-89
2023/05/31 13:18:56;;;;;;;14.63;3.83;;;19.00;99.90;;;;;;5011310;28;20037;-88
2023/05/31 13:21:22;;;;;;;13.40;3.58;;;19.00;99.90;;;;;;5046392;28;20043;-89
2023/05/31 13:23:48;;;;;;;15.93;3.47;;;18.90;99.90;;;;;;5028711;28;20052;-89
2023/05/31 13:26:14;;;;;;;11.13;3.40;;;18.90;99.90;;;;;;5017811;28;20098;-89
2023/05/31 13:28:40;;;;;;;14.45;3.33;;;18.90;99.90;;;;;;5024190;28;20051;-89
2023/05/31 13:31:06;;;;;;;15.88;3.70;;;18.80;99.90;;;;;;5021526;28;20192;-90
2023/05/31 13:33:32;;;;;;;20.50;3.30;;;18.70;99.90;;;;;;5020535;28;20076;-90
2023/05/31 13:35:58;;;;;;;11.75;2.95;;;18.50;99.90;;;;;;5034770;28;20052;-90
2023/05/31 13:38:24;;;;;;;14.63;4.13;;;18.50;99.90;;;;;;5036643;28;20041;-91
2023/05/31 13:40:51;;;;;;;17.55;3.05;;;18.50;99.90;;;;;;5031339;28;20037;-89
2023/05/31 13:43:18;;;;;;;17.27;3.28;;;18.50;99.90;;;;;;5022188;28;20136;-89
2023/05/31 13:45:45;;;;;;;10.73;3.45;;;18.40;99.90;;;;;;5040530;28;20095;-90
2023/05/31 13:48:13;;;;;;;10.80;3.80;;;18.40;99.90;;;;;;5022876;28;20037;-90
2023/05/31 13:50:40;;;;;;;13.63;4.30;;;18.40;99.90;;;;;;5043632;28;20448;-90
2023/05/31 13:53:09;;;;;;;15.05;3.80;;;18.40;99.90;;;;;;5034712;28;20049;-90
2023/05/31 13:55:36;;;;;;;12.43;3.15;;;18.40;99.90;;;;;;5016529;28;20041;-90